createdAt,value
2018-12-19T00:00:54.338Z,3.21
2018-12-19T00:03:21.784Z,3.16
2018-12-19T00:05:49.226Z,2.70
2018-12-19T00:08:16.675Z,2.66
2018-12-19T00:10:44.127Z,2.47
2018-12-19T00:13:13.674Z,2.34
2018-12-19T00:15:41.130Z,2.64
2018-12-19T00:18:08.594Z,2.64
2018-12-19T00:20:36.219Z,2.65
2018-12-19T00:23:03.686Z,2.56
2018-12-19T00:25:31.137Z,2.53
2018-12-19T00:27:58.605Z,2.38
2018-12-19T00:30:26.051Z,2.36
2018-12-19T00:32:53.512Z,2.27
2018-12-19T00:35:20.958Z,2.25
2018-12-19T00:37:48.406Z,2.18
2018-12-19T00:40:15.857Z,2.20
2018-12-19T00:42:43.311Z,2.18
2018-12-19T00:45:10.761Z,1.99
2018-12-19T00:47:38.222Z,2.05
2018-12-19T00:50:06.238Z,1.60
2018-12-19T00:52:33.685Z,1.66
2018-12-19T00:55:01.141Z,1.71
2018-12-19T00:57:28.594Z,1.90
2018-12-19T00:59:56.051Z,2.21
2018-12-19T01:02:23.493Z,2.10
2018-12-19T01:04:50.949Z,2.21
2018-12-19T01:07:18.404Z,2.24
2018-12-19T01:09:45.881Z,2.15
2018-12-19T01:12:13.336Z,2.14
2018-12-19T01:14:40.792Z,2.08
2018-12-19T01:17:08.241Z,2.22
2018-12-19T01:19:35.716Z,2.13
2018-12-19T01:22:03.168Z,2.19
2018-12-19T01:24:30.638Z,2.14
2018-12-19T01:26:58.093Z,2.07
2018-12-19T01:29:25.561Z,1.92
2018-12-19T01:31:53.012Z,1.97
2018-12-19T01:34:20.476Z,1.96
2018-12-19T01:36:47.924Z,2.19
2018-12-19T01:39:15.395Z,1.94
2018-12-19T01:41:42.845Z,1.78
2018-12-19T01:44:10.310Z,1.91
2018-12-19T01:46:37.777Z,1.96
2018-12-19T01:49:05.224Z,1.81
2018-12-19T01:51:32.685Z,1.76
2018-12-19T01:54:00.132Z,1.93
2018-12-19T01:56:27.592Z,1.81
2018-12-19T01:58:55.037Z,1.90
2018-12-19T02:01:22.578Z,1.66
2018-12-19T02:03:50.033Z,1.66
2018-12-19T02:06:17.489Z,1.67
2018-12-19T02:08:44.947Z,1.50
2018-12-19T02:11:12.405Z,1.61
2018-12-19T02:13:39.937Z,1.57
2018-12-19T02:16:07.402Z,1.70
2018-12-19T02:18:34.933Z,1.49
2018-12-19T02:21:02.400Z,1.44
2018-12-19T02:23:29.839Z,1.56
2018-12-19T02:25:57.297Z,1.68
2018-12-19T02:28:24.752Z,1.72
2018-12-19T02:30:52.196Z,1.67
2018-12-19T02:33:19.677Z,1.66
2018-12-19T02:35:47.126Z,1.62
2018-12-19T02:38:14.589Z,1.56
2018-12-19T02:40:42.043Z,1.59
2018-12-19T02:43:09.511Z,1.61
2018-12-19T02:45:37.553Z,1.48
2018-12-19T02:48:05.017Z,1.60
2018-12-19T02:50:32.552Z,1.58
2018-12-19T02:53:00.026Z,1.68
2018-12-19T02:55:27.473Z,1.54
2018-12-19T02:57:54.952Z,1.36
2018-12-19T03:00:22.408Z,1.53
2018-12-19T03:02:49.878Z,1.42
2018-12-19T03:05:17.336Z,1.49
2018-12-19T03:07:44.893Z,1.44
2018-12-19T03:10:12.343Z,1.70
2018-12-19T03:12:40.311Z,1.64
2018-12-19T03:15:07.855Z,1.44
2018-12-19T03:17:35.385Z,1.49
2018-12-19T03:20:02.920Z,1.52
2018-12-19T03:22:30.365Z,1.57
2018-12-19T03:24:57.830Z,1.59
2018-12-19T03:27:25.276Z,1.51
2018-12-19T03:29:52.749Z,1.65
2018-12-19T03:32:20.201Z,1.51
2018-12-19T03:34:47.668Z,1.48
2018-12-19T03:37:15.117Z,1.67
2018-12-19T03:39:42.573Z,1.39
2018-12-19T03:42:10.051Z,1.53
2018-12-19T03:44:37.521Z,1.58
2018-12-19T03:47:04.967Z,1.46
2018-12-19T03:49:33.014Z,1.54
2018-12-19T03:52:00.565Z,1.67
2018-12-19T03:54:28.520Z,1.69
2018-12-19T03:56:56.551Z,1.68
2018-12-19T03:59:24.025Z,1.60
2018-12-19T04:01:51.468Z,1.67
2018-12-19T04:04:18.962Z,1.35
2018-12-19T04:06:46.418Z,1.50
2018-12-19T04:09:13.868Z,1.75
2018-12-19T04:11:41.334Z,1.68
2018-12-19T04:14:08.782Z,1.82
2018-12-19T04:16:36.241Z,1.67
2018-12-19T04:19:03.707Z,1.77
2018-12-19T04:21:31.165Z,1.80
2018-12-19T04:23:58.613Z,1.91
2018-12-19T04:26:26.089Z,1.77
2018-12-19T04:28:53.529Z,1.88
2018-12-19T04:31:20.989Z,1.92
2018-12-19T04:33:48.438Z,2.13
2018-12-19T04:36:15.889Z,1.76
2018-12-19T04:38:43.353Z,1.56
2018-12-19T04:41:10.824Z,2.05
2018-12-19T04:43:38.263Z,1.73
2018-12-19T04:46:05.877Z,1.54
2018-12-19T04:48:33.320Z,1.61
2018-12-19T04:51:00.794Z,1.56
2018-12-19T04:53:28.255Z,1.53
2018-12-19T04:55:55.706Z,1.56
2018-12-19T04:58:23.176Z,1.27
2018-12-19T05:00:50.623Z,1.31
2018-12-19T05:03:18.085Z,1.44
2018-12-19T05:05:45.534Z,1.41
2018-12-19T05:08:13.008Z,1.37
2018-12-19T05:10:40.450Z,1.45
2018-12-19T05:13:07.907Z,1.68
2018-12-19T05:15:35.368Z,1.51
2018-12-19T05:18:02.834Z,1.66
2018-12-19T05:20:30.283Z,1.44
2018-12-19T05:22:57.744Z,1.46
2018-12-19T05:25:25.195Z,1.49
2018-12-19T05:27:52.661Z,1.37
2018-12-19T05:30:20.120Z,1.60
2018-12-19T05:32:47.587Z,1.56
2018-12-19T05:35:15.050Z,1.33
2018-12-19T05:37:42.501Z,1.43
2018-12-19T05:40:09.961Z,1.50
2018-12-19T05:42:37.414Z,1.55
2018-12-19T05:45:06.025Z,1.44
2018-12-19T05:47:33.557Z,1.31
2018-12-19T05:50:01.309Z,1.49
2018-12-19T05:52:29.046Z,1.50
2018-12-19T05:54:56.606Z,1.41
2018-12-19T05:57:24.249Z,1.99
2018-12-19T05:59:51.709Z,2.02
2018-12-19T06:02:19.163Z,1.85
2018-12-19T06:04:46.637Z,1.99
2018-12-19T06:07:14.088Z,2.12
2018-12-19T06:09:41.538Z,1.86
2018-12-19T06:12:08.999Z,2.05
2018-12-19T06:14:37.732Z,2.20
2018-12-19T06:17:05.439Z,2.12
2018-12-19T06:19:32.910Z,1.97
2018-12-19T06:22:00.369Z,2.13
2018-12-19T06:24:27.840Z,2.03
2018-12-19T06:26:55.276Z,2.10
2018-12-19T06:29:22.736Z,1.84
2018-12-19T06:31:50.202Z,1.99
2018-12-19T06:34:17.679Z,1.80
2018-12-19T06:36:45.126Z,1.88
2018-12-19T06:39:12.654Z,1.92
2018-12-19T06:41:40.117Z,2.27
2018-12-19T06:44:07.562Z,2.22
2018-12-19T06:46:35.036Z,2.22
2018-12-19T06:49:02.477Z,2.42
2018-12-19T06:51:29.941Z,2.36
2018-12-19T06:53:57.381Z,1.70
2018-12-19T06:56:24.843Z,2.00
2018-12-19T06:58:52.294Z,2.13
2018-12-19T07:01:19.754Z,2.15
2018-12-19T07:03:47.229Z,2.63
2018-12-19T07:06:14.697Z,2.44
2018-12-19T07:08:42.154Z,2.78
2018-12-19T07:11:09.620Z,2.62
2018-12-19T07:13:37.083Z,2.45
2018-12-19T07:16:04.540Z,2.80
2018-12-19T07:18:32.335Z,2.73
2018-12-19T07:21:00.380Z,3.16
2018-12-19T07:23:27.825Z,2.68
2018-12-19T07:25:55.272Z,2.64
2018-12-19T07:28:22.740Z,2.41
2018-12-19T07:30:50.185Z,2.63
2018-12-19T07:33:17.649Z,2.43
2018-12-19T07:35:45.099Z,2.62
2018-12-19T07:38:12.556Z,2.84
2018-12-19T07:40:45.500Z,2.24
2018-12-19T07:43:09.502Z,2.41
2018-12-19T07:45:36.950Z,2.77
2018-12-19T07:48:04.425Z,3.09
2018-12-19T07:50:31.873Z,2.41
2018-12-19T07:52:59.441Z,2.15
2018-12-19T07:55:28.932Z,2.56
2018-12-19T07:57:56.406Z,2.38
2018-12-19T08:00:27.439Z,2.65
2018-12-19T08:02:53.334Z,2.27
2018-12-19T08:05:26.126Z,2.32
2018-12-19T08:07:50.278Z,2.45
2018-12-19T08:10:17.737Z,3.08
2018-12-19T08:12:45.220Z,3.12
2018-12-19T08:15:12.674Z,3.47
2018-12-19T08:17:40.180Z,3.09
2018-12-19T08:20:07.941Z,3.10
2018-12-19T08:22:35.403Z,3.39
2018-12-19T08:25:02.936Z,3.27
2018-12-19T08:27:30.390Z,2.88
2018-12-19T08:29:57.853Z,2.86
2018-12-19T08:32:25.298Z,3.05
2018-12-19T08:34:52.765Z,3.35
2018-12-19T08:37:20.217Z,3.53
2018-12-19T08:39:47.691Z,2.28
2018-12-19T08:42:15.588Z,2.52
2018-12-19T08:44:43.061Z,2.65
2018-12-19T08:47:10.514Z,3.31
2018-12-19T08:49:37.988Z,2.61
2018-12-19T08:52:05.428Z,2.51
2018-12-19T08:54:32.891Z,2.56
2018-12-19T08:57:00.340Z,2.65
2018-12-19T08:59:27.786Z,2.86
2018-12-19T09:01:55.251Z,3.37
2018-12-19T09:04:25.839Z,3.27
2018-12-19T09:06:52.216Z,2.80
2018-12-19T09:09:20.436Z,3.69
2018-12-19T09:11:47.892Z,3.55
2018-12-19T09:14:15.337Z,3.70
2018-12-19T09:16:42.797Z,3.91
2018-12-19T09:19:10.245Z,3.71
2018-12-19T09:21:37.708Z,3.13
2018-12-19T09:24:05.153Z,3.26
2018-12-19T09:26:32.623Z,3.18
2018-12-19T09:29:00.069Z,3.39
2018-12-19T09:31:27.526Z,3.47
2018-12-19T09:33:54.966Z,3.30
2018-12-19T09:36:22.425Z,3.39
2018-12-19T09:38:49.869Z,2.89
2018-12-19T09:41:17.330Z,3.54
2018-12-19T09:43:44.780Z,3.46
2018-12-19T09:46:12.240Z,3.42
2018-12-19T09:48:39.700Z,2.93
2018-12-19T09:51:07.161Z,3.74
2018-12-19T09:53:35.222Z,4.00
2018-12-19T09:56:02.662Z,2.80
2018-12-19T09:58:30.245Z,3.27
2018-12-19T10:00:57.698Z,3.13
2018-12-19T10:03:25.152Z,3.40
2018-12-19T10:05:52.601Z,3.28
2018-12-19T10:08:20.066Z,3.67
2018-12-19T10:10:47.526Z,3.19
2018-12-19T10:13:14.990Z,3.48
2018-12-19T10:15:42.441Z,3.03
2018-12-19T10:18:09.906Z,3.43
2018-12-19T10:20:37.350Z,3.54
2018-12-19T10:23:04.816Z,3.56
2018-12-19T10:25:32.301Z,3.45
2018-12-19T10:27:59.920Z,3.10
2018-12-19T10:30:27.369Z,3.02
2018-12-19T10:32:55.712Z,2.83
2018-12-19T10:35:23.943Z,3.63
2018-12-19T10:37:51.397Z,3.09
2018-12-19T10:40:18.869Z,3.24
2018-12-19T10:42:46.318Z,3.15
2018-12-19T10:45:13.892Z,3.41
2018-12-19T10:47:41.335Z,2.78
2018-12-19T10:50:09.265Z,3.02
2018-12-19T10:52:36.719Z,3.40
2018-12-19T10:55:05.059Z,3.78
2018-12-19T10:57:32.868Z,3.37
2018-12-19T11:00:00.339Z,3.58
2018-12-19T11:02:27.793Z,2.74
2018-12-19T11:04:55.262Z,3.50
2018-12-19T11:07:22.714Z,2.86
2018-12-19T11:09:50.174Z,3.18
2018-12-19T11:12:17.639Z,3.27
2018-12-19T11:14:45.104Z,3.76
2018-12-19T11:17:12.558Z,3.08
2018-12-19T11:19:40.022Z,3.08
2018-12-19T11:22:09.444Z,3.50
2018-12-19T11:24:37.029Z,3.00
2018-12-19T11:27:04.486Z,2.60
2018-12-19T11:29:31.929Z,3.22
2018-12-19T11:31:59.393Z,2.75
2018-12-19T11:34:26.838Z,3.58
2018-12-19T11:36:54.297Z,3.22
2018-12-19T11:39:21.757Z,3.37
2018-12-19T11:41:49.234Z,3.49
2018-12-19T11:44:16.669Z,3.43
2018-12-19T11:46:44.133Z,3.83
2018-12-19T11:49:11.578Z,3.76
2018-12-19T11:51:39.049Z,3.58
2018-12-19T11:54:06.502Z,3.50
2018-12-19T11:56:33.972Z,3.50
2018-12-19T11:59:01.421Z,3.90
2018-12-19T12:01:28.891Z,3.83
2018-12-19T12:03:56.338Z,3.64
2018-12-19T12:06:23.804Z,3.35
2018-12-19T12:08:51.259Z,3.75
2018-12-19T12:11:18.717Z,3.65
2018-12-19T12:13:46.173Z,4.29
2018-12-19T12:16:13.625Z,3.71
2018-12-19T12:18:41.085Z,3.69
2018-12-19T12:21:08.531Z,4.17
2018-12-19T12:23:35.987Z,4.47
2018-12-19T12:26:03.462Z,3.71
2018-12-19T12:28:30.912Z,3.52
2018-12-19T12:30:58.444Z,4.40
2018-12-19T12:33:25.901Z,3.75
2018-12-19T12:35:53.645Z,3.73
2018-12-19T12:38:21.103Z,3.89
2018-12-19T12:40:48.557Z,3.68
2018-12-19T12:43:16.017Z,3.72
2018-12-19T12:45:43.465Z,4.13
2018-12-19T12:48:10.942Z,4.23
2018-12-19T12:50:38.389Z,3.89
2018-12-19T12:53:05.857Z,3.63
2018-12-19T12:55:33.308Z,3.73
2018-12-19T12:58:00.781Z,2.96
2018-12-19T13:00:28.240Z,3.16
2018-12-19T13:02:55.701Z,3.68
2018-12-19T13:05:23.651Z,3.84
2018-12-19T13:07:51.094Z,4.21
2018-12-19T13:10:18.549Z,4.08
2018-12-19T13:12:46.082Z,4.24
2018-12-19T13:15:15.545Z,4.08
2018-12-19T13:17:43.576Z,3.98
2018-12-19T13:20:11.125Z,3.57
2018-12-19T13:22:38.573Z,3.66
2018-12-19T13:25:06.044Z,3.85
2018-12-19T13:27:33.495Z,3.34
2018-12-19T13:30:00.954Z,3.32
2018-12-19T13:32:28.397Z,3.25
2018-12-19T13:34:55.866Z,4.02
2018-12-19T13:37:23.306Z,3.62
2018-12-19T13:39:50.773Z,3.63
2018-12-19T13:42:18.219Z,3.74
2018-12-19T13:44:45.670Z,4.13
2018-12-19T13:47:13.112Z,3.94
2018-12-19T13:49:40.594Z,3.87
2018-12-19T13:52:08.047Z,3.96
2018-12-19T13:54:35.510Z,3.97
2018-12-19T13:57:02.972Z,3.20
2018-12-19T13:59:30.417Z,3.28
2018-12-19T14:01:57.901Z,3.81
2018-12-19T14:04:25.425Z,3.73
2018-12-19T14:06:52.905Z,3.61
2018-12-19T14:09:20.348Z,3.52
2018-12-19T14:11:47.809Z,3.73
2018-12-19T14:14:15.265Z,3.56
2018-12-19T14:16:42.720Z,3.32
2018-12-19T14:19:10.249Z,3.08
2018-12-19T14:21:37.732Z,3.59
2018-12-19T14:24:05.184Z,3.62
2018-12-19T14:26:32.654Z,3.71
2018-12-19T14:29:00.101Z,3.21
2018-12-19T14:31:27.577Z,2.95
2018-12-19T14:33:55.132Z,3.85
2018-12-19T14:36:22.782Z,3.86
2018-12-19T14:38:50.251Z,3.42
2018-12-19T14:41:17.705Z,3.65
2018-12-19T14:43:45.170Z,3.86
2018-12-19T14:46:12.621Z,3.72
2018-12-19T14:48:40.086Z,3.56
2018-12-19T14:51:07.638Z,3.57
2018-12-19T14:53:35.099Z,3.53
2018-12-19T14:56:02.562Z,3.25
2018-12-19T14:58:30.020Z,3.21
2018-12-19T15:00:57.471Z,3.18
2018-12-19T15:03:24.925Z,3.67
2018-12-19T15:05:52.381Z,3.50
2018-12-19T15:08:19.838Z,3.70
2018-12-19T15:10:47.286Z,2.99
2018-12-19T15:13:14.756Z,3.43
2018-12-19T15:15:44.200Z,3.43
2018-12-19T15:18:11.657Z,2.96
2018-12-19T15:20:39.111Z,2.95
2018-12-19T15:23:06.577Z,2.85
2018-12-19T15:25:34.040Z,2.95
2018-12-19T15:28:01.494Z,2.86
2018-12-19T15:30:28.953Z,2.96
2018-12-19T15:32:56.906Z,2.84
2018-12-19T15:35:24.377Z,3.02
2018-12-19T15:37:51.821Z,3.13
2018-12-19T15:40:19.288Z,3.59
2018-12-19T15:42:46.740Z,3.07
2018-12-19T15:45:14.216Z,3.04
2018-12-19T15:47:41.666Z,2.98
2018-12-19T15:50:09.214Z,3.23
2018-12-19T15:52:36.654Z,3.33
2018-12-19T15:55:04.232Z,2.92
2018-12-19T15:57:31.690Z,3.14
2018-12-19T15:59:59.150Z,3.38
2018-12-19T16:02:26.591Z,3.40
2018-12-19T16:04:54.045Z,3.35
2018-12-19T16:07:21.502Z,3.25
2018-12-19T16:09:48.966Z,3.16
2018-12-19T16:12:16.423Z,3.41
2018-12-19T16:14:43.877Z,3.42
2018-12-19T16:17:11.357Z,3.19
2018-12-19T16:19:38.805Z,3.35
2018-12-19T16:22:06.269Z,3.28
2018-12-19T16:24:33.720Z,3.31
2018-12-19T16:27:01.481Z,3.12
2018-12-19T16:29:28.938Z,3.21
2018-12-19T16:31:56.401Z,3.16
2018-12-19T16:34:23.857Z,3.32
2018-12-19T16:36:51.334Z,2.87
2018-12-19T16:39:18.782Z,2.99
2018-12-19T16:41:46.261Z,3.02
2018-12-19T16:44:13.708Z,2.75
2018-12-19T16:46:41.176Z,2.87
2018-12-19T16:49:08.627Z,2.88
2018-12-19T16:51:36.090Z,3.00
2018-12-19T16:54:03.626Z,3.43
2018-12-19T16:56:31.285Z,3.32
2018-12-19T16:58:58.736Z,2.84
2018-12-19T17:01:26.194Z,2.53
2018-12-19T17:03:53.638Z,2.83
2018-12-19T17:06:21.105Z,2.57
2018-12-19T17:08:48.565Z,2.79
2018-12-19T17:11:16.023Z,3.05
2018-12-19T17:13:43.511Z,3.37
2018-12-19T17:16:10.979Z,3.15
2018-12-19T17:18:38.553Z,3.30
2018-12-19T17:21:06.003Z,3.37
2018-12-19T17:23:33.475Z,2.97
2018-12-19T17:26:01.420Z,3.10
2018-12-19T17:28:28.898Z,3.04
2018-12-19T17:30:56.340Z,2.87
2018-12-19T17:33:23.806Z,2.91
2018-12-19T17:35:51.247Z,2.81
2018-12-19T17:38:18.729Z,3.05
2018-12-19T17:40:46.178Z,2.76
2018-12-19T17:43:13.641Z,2.62
2018-12-19T17:45:41.107Z,3.11
2018-12-19T17:48:08.563Z,2.89
2018-12-19T17:50:36.007Z,2.85
2018-12-19T17:53:03.462Z,2.94
2018-12-19T17:55:30.924Z,3.21
2018-12-19T17:57:58.379Z,3.26
2018-12-19T18:00:26.434Z,2.82
2018-12-19T18:02:53.886Z,3.50
2018-12-19T18:05:21.373Z,2.67
2018-12-19T18:07:48.818Z,2.70
2018-12-19T18:10:16.756Z,2.93
2018-12-19T18:12:44.214Z,3.13
2018-12-19T18:15:11.685Z,3.39
2018-12-19T18:17:39.134Z,3.23
2018-12-19T18:20:06.997Z,3.21
2018-12-19T18:22:34.458Z,3.57
2018-12-19T18:25:01.945Z,3.43
2018-12-19T18:27:29.402Z,3.01
2018-12-19T18:29:56.866Z,2.97
2018-12-19T18:32:24.542Z,2.99
2018-12-19T18:34:52.016Z,2.95
2018-12-19T18:37:19.482Z,3.31
2018-12-19T18:39:46.934Z,3.08
2018-12-19T18:42:14.397Z,3.52
2018-12-19T18:44:41.858Z,3.42
2018-12-19T18:47:09.321Z,3.00
2018-12-19T18:49:36.766Z,2.95
2018-12-19T18:52:04.231Z,2.86
2018-12-19T18:54:31.680Z,3.36
2018-12-19T18:56:59.153Z,3.38
2018-12-19T18:59:27.119Z,3.06
2018-12-19T19:01:54.753Z,3.07
2018-12-19T19:04:22.311Z,2.92
2018-12-19T19:06:49.873Z,3.24
2018-12-19T19:09:17.336Z,3.38
2018-12-19T19:11:44.802Z,3.37
2018-12-19T19:14:12.246Z,3.15
2018-12-19T19:16:39.741Z,3.35
2018-12-19T19:19:07.191Z,3.05
2018-12-19T19:21:34.707Z,3.87
2018-12-19T19:24:02.243Z,2.83
2018-12-19T19:26:29.852Z,3.33
2018-12-19T19:28:57.393Z,3.53
2018-12-19T19:31:24.833Z,3.47
2018-12-19T19:33:52.309Z,3.58
2018-12-19T19:36:19.761Z,3.29
2018-12-19T19:38:47.234Z,3.56
2018-12-19T19:41:14.684Z,3.18
2018-12-19T19:43:42.142Z,3.46
2018-12-19T19:46:09.597Z,3.93
2018-12-19T19:48:37.070Z,4.24
2018-12-19T19:51:04.523Z,3.61
2018-12-19T19:53:32.179Z,3.64
2018-12-19T19:55:59.625Z,3.32
2018-12-19T19:58:27.092Z,3.03
2018-12-19T20:00:54.546Z,3.05
2018-12-19T20:03:22.004Z,3.10
2018-12-19T20:05:49.458Z,3.42
2018-12-19T20:08:16.919Z,3.30
2018-12-19T20:10:44.366Z,3.21
2018-12-19T20:13:11.841Z,3.37
2018-12-19T20:15:39.390Z,3.15
2018-12-19T20:18:07.200Z,3.17
2018-12-19T20:20:34.651Z,3.31
2018-12-19T20:23:02.110Z,2.40
2018-12-19T20:25:29.582Z,2.66
2018-12-19T20:27:57.046Z,2.89
2018-12-19T20:30:24.513Z,3.03
2018-12-19T20:32:51.974Z,3.53
2018-12-19T20:35:19.582Z,2.93
2018-12-19T20:37:47.035Z,2.66
2018-12-19T20:40:14.519Z,2.58
2018-12-19T20:42:41.970Z,2.58
2018-12-19T20:45:09.434Z,2.58
2018-12-19T20:47:36.878Z,2.44
2018-12-19T20:50:07.325Z,2.50
2018-12-19T20:52:34.774Z,2.44
2018-12-19T20:55:02.259Z,2.31
2018-12-19T20:57:29.810Z,2.54
2018-12-19T20:59:57.319Z,2.19
2018-12-19T21:02:24.878Z,2.08
2018-12-19T21:04:52.329Z,1.93
2018-12-19T21:07:19.798Z,2.18
2018-12-19T21:09:59.020Z,2.22
2018-12-19T21:12:26.498Z,2.16
2018-12-19T21:14:53.961Z,2.25
2018-12-19T21:17:27.023Z,1.49
2018-12-19T21:19:54.489Z,2.05
2018-12-19T21:22:22.916Z,1.81
2018-12-19T21:24:50.368Z,2.39
2018-12-19T21:27:17.839Z,1.87
2018-12-19T21:29:45.284Z,2.17
2018-12-19T21:32:12.756Z,2.04
2018-12-19T21:34:40.203Z,2.41
2018-12-19T21:37:07.678Z,2.42
2018-12-19T21:39:35.139Z,2.45
2018-12-19T21:42:02.606Z,2.80
2018-12-19T21:44:30.123Z,2.89
2018-12-19T21:46:57.686Z,3.06
2018-12-19T21:49:25.222Z,3.00
2018-12-19T21:51:52.697Z,2.92
2018-12-19T21:54:20.173Z,3.01
2018-12-19T21:56:47.606Z,3.16
2018-12-19T21:59:15.071Z,3.19
2018-12-19T22:01:42.631Z,3.05
2018-12-19T22:04:10.221Z,2.95
2018-12-19T22:06:37.852Z,3.13
2018-12-19T22:09:11.096Z,3.04
2018-12-19T22:11:38.549Z,3.07
2018-12-19T22:14:06.012Z,3.27
2018-12-19T22:16:38.907Z,2.92
2018-12-19T22:19:06.568Z,2.93
2018-12-19T22:21:34.126Z,2.93
2018-12-19T22:24:01.596Z,3.07
2018-12-19T22:26:29.041Z,2.87
2018-12-19T22:28:56.584Z,3.00
2018-12-19T22:31:24.201Z,2.77
2018-12-19T22:33:51.674Z,2.40
2018-12-19T22:36:19.153Z,2.89
2018-12-19T22:38:46.641Z,2.91
2018-12-19T22:41:14.188Z,2.58
2018-12-19T22:43:41.647Z,2.70
2018-12-19T22:46:09.226Z,2.76
2018-12-19T22:48:36.678Z,2.95
2018-12-19T22:51:04.228Z,2.87
2018-12-19T22:53:31.672Z,2.80
2018-12-19T22:55:59.150Z,3.00
2018-12-19T22:58:26.825Z,3.07
2018-12-19T23:00:59.930Z,2.98
2018-12-19T23:03:32.986Z,2.88
2018-12-19T23:06:00.464Z,2.77
2018-12-19T23:08:28.027Z,2.73
2018-12-19T23:10:55.766Z,2.65
2018-12-19T23:13:23.208Z,2.88
2018-12-19T23:15:50.656Z,2.75
2018-12-19T23:18:23.640Z,2.66
2018-12-19T23:20:51.315Z,2.40
2018-12-19T23:23:18.885Z,2.50
2018-12-19T23:25:46.337Z,2.69
2018-12-19T23:28:14.402Z,2.71
2018-12-19T23:30:42.288Z,2.72
2018-12-19T23:33:09.781Z,2.51
2018-12-19T23:35:37.259Z,2.45
2018-12-19T23:38:04.742Z,2.95
2018-12-19T23:40:32.290Z,2.66
2018-12-19T23:42:59.871Z,2.67
2018-12-19T23:45:27.714Z,2.50
2018-12-19T23:47:55.502Z,2.68
2018-12-19T23:50:23.214Z,2.71
2018-12-19T23:52:50.949Z,2.82
2018-12-19T23:55:18.698Z,2.61
2018-12-19T23:57:46.269Z,2.71
